Time;durP1;ratioP1;P1;durP2;ratioP2;P2;SDS_P1;SDS_P2;PMS_P1;PMS_P2;Temp;Humidity;BMP_temperature;BMP_pressure;BME280_temperature;BME280_humidity;BME280_pressure;Samples;Min_cycle;Max_cycle;Signal;HPM_P1;HPM_P2
2024/04/07 00:03:10;;;;;;;5.45;4.20;;;;;;;;;;10124601;28;20067;-67
2024/04/07 00:08:04;;;;;;;6.75;4.30;;;;;;;;;;10123334;28;20044;-68
2024/04/07 00:12:57;;;;;;;9.10;4.90;;;;;;;;;;10129156;28;20164;-67
2024/04/07 00:17:49;;;;;;;5.70;4.10;;;;;;;;;;10120576;28;20059;-67
2024/04/07 00:22:42;;;;;;;8.52;4.35;;;;;;;;;;10126255;28;20052;-66
2024/04/07 00:27:35;;;;;;;7.00;4.50;;;;;;;;;;10124523;28;20052;-67
2024/04/07 00:32:27;;;;;;;8.07;4.50;;;;;;;;;;10123043;28;20113;-67
2024/04/07 00:37:19;;;;;;;8.32;4.75;;;;;;;;;;10125754;28;20049;-67
2024/04/07 00:42:12;;;;;;;10.95;4.25;;;;;;;;;;10131486;28;20155;-66
2024/04/07 00:47:05;;;;;;;8.48;3.67;;;;;;;;;;10124789;28;20193;-66
2024/04/07 00:51:58;;;;;;;5.18;3.63;;;;;;;;;;10121408;28;20059;-66
2024/04/07 00:56:51;;;;;;;3.85;3.55;;;;;;;;;;10120792;28;20109;-66
2024/04/07 01:01:43;;;;;;;5.22;3.78;;;;;;;;;;10119808;28;20053;-65
2024/04/07 01:06:35;;;;;;;3.28;2.97;;;;;;;;;;10120700;28;20089;-65
2024/04/07 01:11:28;;;;;;;7.70;3.92;;;;;;;;;;10119027;28;20049;-67
2024/04/07 01:16:22;;;;;;;4.85;3.33;;;;;;;;;;10118738;28;20048;-66
2024/04/07 01:21:15;;;;;;;6.90;3.47;;;;;;;;;;10119306;28;20049;-67
2024/04/07 01:26:07;;;;;;;4.57;3.40;;;;;;;;;;10120660;28;20440;-67
2024/04/07 01:31:01;;;;;;;5.82;3.70;;;;;;;;;;10122499;28;20068;-66
2024/04/07 01:35:54;;;;;;;6.03;3.35;;;;;;;;;;10115872;28;20118;-66
2024/04/07 01:40:49;;;;;;;5.20;3.33;;;;;;;;;;10125528;28;20136;-68
2024/04/07 01:45:41;;;;;;;6.13;3.85;;;;;;;;;;10121571;28;20052;-65
2024/04/07 01:50:34;;;;;;;6.72;3.35;;;;;;;;;;10126206;28;20154;-66
2024/04/07 01:55:27;;;;;;;11.48;4.28;;;;;;;;;;10123515;28;20420;-66
2024/04/07 02:00:20;;;;;;;8.60;4.20;;;;;;;;;;10126160;28;20581;-67
2024/04/07 02:05:12;;;;;;;6.25;3.78;;;;;;;;;;10119058;28;20127;-67
2024/04/07 02:10:08;;;;;;;7.07;3.70;;;;;;;;;;10105534;28;20044;-68
2024/04/07 02:15:01;;;;;;;7.88;3.75;;;;;;;;;;10103388;28;20492;-67
2024/04/07 02:19:55;;;;;;;5.47;3.45;;;;;;;;;;10111080;28;20041;-67
2024/04/07 02:24:49;;;;;;;6.63;3.60;;;;;;;;;;10118832;28;21157;-68
2024/04/07 02:29:40;;;;;;;6.03;4.03;;;;;;;;;;10104221;28;20156;-67
2024/04/07 02:34:34;;;;;;;5.72;3.10;;;;;;;;;;10114219;28;20054;-67
2024/04/07 02:39:28;;;;;;;6.72;3.03;;;;;;;;;;10105774;28;20044;-68
2024/04/07 02:48:03;;;;;;;5.03;3.40;;;;;;;;;;10120331;28;20056;-66
2024/04/07 02:49:33;;;;;;;5.65;3.05;;;;;;;;;;10105707;28;20045;-67
2024/04/07 02:54:25;;;;;;;7.47;3.53;;;;;;;;;;10109678;28;20059;-67
2024/04/07 02:59:18;;;;;;;3.88;2.88;;;;;;;;;;10106487;28;20055;-67
2024/04/07 03:04:10;;;;;;;4.53;2.55;;;;;;;;;;10107394;28;20509;-67
2024/04/07 03:09:03;;;;;;;5.00;2.70;;;;;;;;;;10115084;28;20052;-67
2024/04/07 03:13:57;;;;;;;6.18;2.85;;;;;;;;;;10110224;28;20045;-67
2024/04/07 03:18:50;;;;;;;2.63;2.40;;;;;;;;;;10107285;28;20354;-67
2024/04/07 03:23:43;;;;;;;4.57;3.63;;;;;;;;;;10115857;28;20090;-68
2024/04/07 03:28:35;;;;;;;8.73;3.60;;;;;;;;;;10113632;28;20050;-68
2024/04/07 03:33:28;;;;;;;5.63;2.90;;;;;;;;;;10114419;28;20535;-67
2024/04/07 03:38:21;;;;;;;7.57;3.33;;;;;;;;;;10109401;28;20056;-68
2024/04/07 03:43:16;;;;;;;6.18;3.38;;;;;;;;;;10113592;28;20067;-67
2024/04/07 03:48:09;;;;;;;5.60;4.32;;;;;;;;;;10106895;28;20041;-67
2024/04/07 03:53:01;;;;;;;5.82;4.85;;;;;;;;;;10108006;28;20041;-67
2024/04/07 03:57:54;;;;;;;6.15;4.97;;;;;;;;;;10110325;28;20475;-68
2024/04/07 04:02:50;;;;;;;6.72;6.03;;;;;;;;;;10102554;28;20444;-68
2024/04/07 04:07:49;;;;;;;11.90;7.05;;;;;;;;;;10117173;28;20044;-68
2024/04/07 04:12:41;;;;;;;9.63;7.28;;;;;;;;;;10125308;28;20089;-68
2024/04/07 04:17:34;;;;;;;10.07;7.15;;;;;;;;;;10119758;28;20562;-68
2024/04/07 04:22:27;;;;;;;8.82;6.07;;;;;;;;;;10111103;28;20125;-68
2024/04/07 04:27:19;;;;;;;9.63;8.35;;;;;;;;;;10081494;28;20056;-66
2024/04/07 04:32:12;;;;;;;12.18;9.60;;;;;;;;;;10101587;28;20052;-67
2024/04/07 04:37:05;;;;;;;12.73;8.60;;;;;;;;;;10096837;28;20136;-68
2024/04/07 04:41:58;;;;;;;9.10;8.05;;;;;;;;;;10099876;28;20119;-68
2024/04/07 04:46:51;;;;;;;11.88;7.18;;;;;;;;;;10111881;28;20064;-67
2024/04/07 04:51:46;;;;;;;13.48;7.72;;;;;;;;;;10096834;28;20053;-67
2024/04/07 04:56:39;;;;;;;8.75;7.78;;;;;;;;;;10107598;28;20040;-67
2024/04/07 05:01:31;;;;;;;11.13;8.77;;;;;;;;;;10112328;28;20045;-68
2024/04/07 05:06:24;;;;;;;13.35;9.35;;;;;;;;;;10125356;28;20041;-66
2024/04/07 05:11:17;;;;;;;13.95;9.25;;;;;;;;;;10121318;28;20056;-67
2024/04/07 05:16:10;;;;;;;14.90;10.70;;;;;;;;;;10120867;28;20134;-66
2024/04/07 05:21:04;;;;;;;12.10;10.85;;;;;;;;;;10124371;28;20143;-66
2024/04/07 05:26:08;;;;;;;15.00;11.02;;;;;;;;;;10123369;28;20076;-67
2024/04/07 05:31:04;;;;;;;12.43;10.93;;;;;;;;;;10095892;28;20048;-67
2024/04/07 05:35:57;;;;;;;13.23;11.30;;;;;;;;;;10120142;28;20048;-67
2024/04/07 05:40:57;;;;;;;13.82;11.20;;;;;;;;;;10114888;28;20128;-68
2024/04/07 05:45:50;;;;;;;12.75;10.90;;;;;;;;;;10123993;28;20393;-67
2024/04/07 05:50:44;;;;;;;12.05;10.85;;;;;;;;;;10128818;28;20132;-67
2024/04/07 05:55:37;;;;;;;12.95;10.05;;;;;;;;;;10124850;28;20052;-67
2024/04/07 06:00:31;;;;;;;12.10;10.15;;;;;;;;;;10127730;28;20037;-67
2024/04/07 06:05:24;;;;;;;14.65;11.88;;;;;;;;;;10121501;28;20051;-67
2024/04/07 06:10:16;;;;;;;14.98;12.50;;;;;;;;;;10129102;28;20052;-67
2024/04/07 06:15:09;;;;;;;12.73;10.75;;;;;;;;;;10128713;28;20382;-67
2024/04/07 06:20:03;;;;;;;11.95;10.05;;;;;;;;;;10129090;28;20098;-67
2024/04/07 06:24:59;;;;;;;7.97;5.35;;;;;;;;;;10129326;28;20047;-67
2024/04/07 06:29:58;;;;;;;5.40;4.32;;;;;;;;;;10128939;28;20052;-71
2024/04/07 06:34:51;;;;;;;6.88;4.28;;;;;;;;;;10130220;28;20563;-67
2024/04/07 06:39:43;;;;;;;5.43;3.53;;;;;;;;;;10123543;28;20063;-67
2024/04/07 06:44:35;;;;;;;6.03;3.60;;;;;;;;;;10125127;28;20055;-67
2024/04/07 06:49:27;;;;;;;4.05;3.28;;;;;;;;;;10124665;28;20067;-67
2024/04/07 06:54:20;;;;;;;6.32;3.50;;;;;;;;;;10122943;28;20500;-67
2024/04/07 06:59:12;;;;;;;4.53;2.90;;;;;;;;;;10121529;28;20037;-67
2024/04/07 07:04:04;;;;;;;6.30;3.65;;;;;;;;;;10128451;28;20182;-67
2024/04/07 07:08:57;;;;;;;7.50;2.85;;;;;;;;;;10120286;28;20052;-68
2024/04/07 07:13:54;;;;;;;4.40;2.55;;;;;;;;;;10118023;28;20055;-67
2024/04/07 07:18:47;;;;;;;3.28;2.65;;;;;;;;;;10116919;28;20555;-66
2024/04/07 07:23:39;;;;;;;7.57;3.20;;;;;;;;;;10117502;28;20055;-67
2024/04/07 07:28:33;;;;;;;10.95;4.10;;;;;;;;;;10117302;28;20131;-67
2024/04/07 07:33:26;;;;;;;4.43;2.33;;;;;;;;;;10114404;28;20045;-67
2024/04/07 07:38:18;;;;;;;3.67;2.35;;;;;;;;;;10112558;28;20049;-67
2024/04/07 07:43:11;;;;;;;3.15;2.33;;;;;;;;;;10088324;28;20761;-67
2024/04/07 07:48:05;;;;;;;4.75;2.85;;;;;;;;;;10005588;28;2815410;-67
2024/04/07 07:52:58;;;;;;;5.63;3.05;;;;;;;;;;10077509;28;20064;-67
2024/04/07 07:57:51;;;;;;;4.55;2.22;;;;;;;;;;10073467;28;20056;-67
2024/04/07 08:02:44;;;;;;;6.35;2.08;;;;;;;;;;10076933;28;20069;-67
2024/04/07 08:07:35;;;;;;;3.15;1.77;;;;;;;;;;10065129;28;20044;-67
2024/04/07 08:12:28;;;;;;;4.13;2.40;;;;;;;;;;10070272;28;20045;-67
2024/04/07 08:17:20;;;;;;;6.38;2.70;;;;;;;;;;10066528;28;20034;-66
2024/04/07 08:22:13;;;;;;;3.28;2.30;;;;;;;;;;10071997;28;20049;-66
2024/04/07 08:27:05;;;;;;;5.75;2.42;;;;;;;;;;10063569;28;20163;-67
2024/04/07 08:31:58;;;;;;;2.45;1.77;;;;;;;;;;10070806;28;20557;-67
2024/04/07 08:36:51;;;;;;;8.75;2.30;;;;;;;;;;10071351;28;20099;-67
2024/04/07 08:41:44;;;;;;;3.55;2.38;;;;;;;;;;10068586;28;20044;-67
2024/04/07 08:46:37;;;;;;;4.20;2.30;;;;;;;;;;10074618;28;20079;-67
2024/04/07 08:51:30;;;;;;;5.07;1.95;;;;;;;;;;10102836;28;20491;-68
2024/04/07 08:56:22;;;;;;;2.80;2.00;;;;;;;;;;10108454;28;20044;-68
2024/04/07 09:01:16;;;;;;;2.83;1.98;;;;;;;;;;10106796;28;20055;-67
2024/04/07 09:06:09;;;;;;;2.75;1.90;;;;;;;;;;10098955;28;20477;-67
2024/04/07 09:11:01;;;;;;;7.22;2.75;;;;;;;;;;10112688;28;20036;-67
2024/04/07 09:15:53;;;;;;;7.05;3.10;;;;;;;;;;10111862;28;20540;-68
2024/04/07 09:20:47;;;;;;;4.57;2.15;;;;;;;;;;10085469;28;20052;-67
2024/04/07 09:25:40;;;;;;;4.97;1.92;;;;;;;;;;10097833;28;20067;-68
2024/04/07 09:30:33;;;;;;;5.90;2.00;;;;;;;;;;10117670;28;20055;-67
2024/04/07 09:35:25;;;;;;;6.20;2.95;;;;;;;;;;10098855;28;20127;-67
2024/04/07 09:40:18;;;;;;;5.75;2.38;;;;;;;;;;10109258;28;20049;-68
2024/04/07 09:45:11;;;;;;;6.20;2.25;;;;;;;;;;10116426;28;20551;-68
2024/04/07 09:50:11;;;;;;;3.92;2.13;;;;;;;;;;10102857;28;20060;-67
2024/04/07 09:55:14;;;;;;;5.03;2.42;;;;;;;;;;10115606;28;20361;-66
2024/04/07 10:00:10;;;;;;;5.85;2.13;;;;;;;;;;10100525;28;20401;-66
2024/04/07 10:05:07;;;;;;;6.70;2.08;;;;;;;;;;10081439;28;20045;-68
2024/04/07 10:09:59;;;;;;;2.97;1.90;;;;;;;;;;10104245;28;20144;-67
2024/04/07 10:14:51;;;;;;;4.80;2.63;;;;;;;;;;10110662;28;20136;-67
2024/04/07 10:19:45;;;;;;;5.72;2.63;;;;;;;;;;10111389;28;20048;-67
2024/04/07 10:24:37;;;;;;;3.63;2.25;;;;;;;;;;10106440;28;20048;-67
2024/04/07 10:29:32;;;;;;;4.53;3.55;;;;;;;;;;10114060;28;20052;-68
2024/04/07 10:34:24;;;;;;;7.15;3.90;;;;;;;;;;10108299;28;20037;-67
2024/04/07 10:39:21;;;;;;;5.57;3.88;;;;;;;;;;10104958;28;20037;-68
2024/04/07 10:44:13;;;;;;;12.65;3.88;;;;;;;;;;10118883;28;20899;-68
2024/04/07 10:49:07;;;;;;;8.00;3.67;;;;;;;;;;10111784;28;20060;-67
2024/04/07 10:54:00;;;;;;;6.68;3.17;;;;;;;;;;10122249;28;20094;-67
2024/04/07 10:58:53;;;;;;;13.45;3.13;;;;;;;;;;10099630;28;20033;-68
2024/04/07 11:03:46;;;;;;;5.38;1.90;;;;;;;;;;10117238;28;20044;-68
2024/04/07 11:08:39;;;;;;;7.88;3.63;;;;;;;;;;10115541;28;20037;-67
2024/04/07 11:13:31;;;;;;;4.95;2.72;;;;;;;;;;10121361;28;20080;-67
2024/04/07 11:18:25;;;;;;;6.18;3.25;;;;;;;;;;10110915;28;20127;-68
2024/04/07 11:23:18;;;;;;;5.72;3.53;;;;;;;;;;10117582;28;20049;-68
2024/04/07 11:28:13;;;;;;;6.47;3.00;;;;;;;;;;10108030;28;20067;-68
2024/04/07 11:33:08;;;;;;;5.45;3.67;;;;;;;;;;10114448;28;20481;-68
2024/04/07 11:38:02;;;;;;;6.43;2.83;;;;;;;;;;10106765;28;20049;-67
2024/04/07 11:42:55;;;;;;;3.50;3.05;;;;;;;;;;10115017;28;20036;-67
2024/04/07 11:47:47;;;;;;;2.90;2.40;;;;;;;;;;10117525;28;20108;-69
2024/04/07 11:52:40;;;;;;;7.13;2.92;;;;;;;;;;10113719;28;21910;-68
2024/04/07 11:57:33;;;;;;;2.75;2.20;;;;;;;;;;10117887;28;20040;-67
2024/04/07 12:02:26;;;;;;;5.45;3.13;;;;;;;;;;10116885;28;20446;-68
2024/04/07 12:07:21;;;;;;;6.90;2.80;;;;;;;;;;10113898;28;20048;-68
2024/04/07 12:12:13;;;;;;;4.22;3.05;;;;;;;;;;10102484;28;20152;-69
2024/04/07 12:17:06;;;;;;;4.18;3.50;;;;;;;;;;10113545;28;20558;-67
2024/04/07 12:22:00;;;;;;;3.83;2.50;;;;;;;;;;10107401;28;20524;-69
2024/04/07 12:26:53;;;;;;;3.63;3.05;;;;;;;;;;10108925;28;20412;-66
2024/04/07 12:31:46;;;;;;;3.78;2.90;;;;;;;;;;10105796;28;20408;-66
2024/04/07 12:36:39;;;;;;;5.75;3.17;;;;;;;;;;10113757;28;20048;-67
2024/04/07 12:41:32;;;;;;;6.63;3.40;;;;;;;;;;10119352;28;20053;-67
2024/04/07 12:46:27;;;;;;;4.72;3.08;;;;;;;;;;10116399;28;20407;-68
2024/04/07 12:51:20;;;;;;;12.32;3.38;;;;;;;;;;10099623;28;20136;-67
2024/04/07 12:56:14;;;;;;;6.50;3.13;;;;;;;;;;10090915;28;20045;-67
2024/04/07 13:01:06;;;;;;;5.60;3.80;;;;;;;;;;10112329;28;20037;-67
2024/04/07 13:05:59;;;;;;;3.85;2.83;;;;;;;;;;10091012;28;20048;-69
2024/04/07 13:10:54;;;;;;;4.78;2.83;;;;;;;;;;10116948;28;20045;-67
2024/04/07 13:15:46;;;;;;;5.63;3.42;;;;;;;;;;10086039;28;20128;-67
2024/04/07 13:20:39;;;;;;;5.30;3.20;;;;;;;;;;10105007;28;20055;-67
2024/04/07 13:25:31;;;;;;;3.88;3.10;;;;;;;;;;10110250;28;20043;-66
2024/04/07 13:30:27;;;;;;;6.63;3.17;;;;;;;;;;10113305;28;20083;-69
2024/04/07 13:35:19;;;;;;;3.25;2.70;;;;;;;;;;10100415;28;20049;-66
2024/04/07 13:40:12;;;;;;;5.22;3.33;;;;;;;;;;10109534;28;20048;-68
2024/04/07 13:45:06;;;;;;;7.05;3.13;;;;;;;;;;10106191;28;20518;-67
2024/04/07 13:49:59;;;;;;;6.97;3.55;;;;;;;;;;10110045;28;20479;-67
2024/04/07 13:54:53;;;;;;;9.40;2.58;;;;;;;;;;10098381;28;20045;-67
2024/04/07 13:59:45;;;;;;;4.28;2.63;;;;;;;;;;10110293;28;20052;-66
2024/04/07 14:04:39;;;;;;;4.05;2.60;;;;;;;;;;10096908;28;20417;-67
2024/04/07 14:09:31;;;;;;;8.45;3.45;;;;;;;;;;10104589;28;20045;-68
2024/04/07 14:14:24;;;;;;;3.70;3.22;;;;;;;;;;10108315;28;20044;-66
2024/04/07 14:19:17;;;;;;;6.50;2.83;;;;;;;;;;10115727;28;20136;-66
2024/04/07 14:24:09;;;;;;;8.63;2.92;;;;;;;;;;10103315;28;20053;-66
2024/04/07 14:29:05;;;;;;;3.83;2.10;;;;;;;;;;10114362;28;20102;-67
2024/04/07 14:33:57;;;;;;;5.47;1.90;;;;;;;;;;10109843;28;20454;-67
2024/04/07 14:38:51;;;;;;;5.22;1.90;;;;;;;;;;10109247;28;20127;-67
2024/04/07 14:43:44;;;;;;;3.17;2.15;;;;;;;;;;10120496;28;20040;-66
2024/04/07 14:48:41;;;;;;;4.43;1.80;;;;;;;;;;10113144;28;20061;-67
2024/04/07 14:53:33;;;;;;;5.10;2.10;;;;;;;;;;10112563;28;20057;-67
2024/04/07 14:58:26;;;;;;;1.65;1.55;;;;;;;;;;10104022;28;20076;-66
2024/04/07 15:03:19;;;;;;;6.22;2.15;;;;;;;;;;10100329;28;20076;-66
2024/04/07 15:08:13;;;;;;;5.97;1.90;;;;;;;;;;10117340;28;20144;-67
2024/04/07 15:13:06;;;;;;;4.20;2.38;;;;;;;;;;10117045;28;20135;-67
2024/04/07 15:17:58;;;;;;;6.45;2.05;;;;;;;;;;10102962;28;20045;-67
2024/04/07 15:22:51;;;;;;;7.50;2.33;;;;;;;;;;10106594;28;20053;-67
2024/04/07 15:27:43;;;;;;;7.47;2.03;;;;;;;;;;10114724;28;20049;-68
2024/04/07 15:32:36;;;;;;;4.93;2.20;;;;;;;;;;10121193;28;20087;-67
2024/04/07 15:37:28;;;;;;;4.82;1.92;;;;;;;;;;10106084;28;20048;-67
2024/04/07 15:42:21;;;;;;;4.20;1.98;;;;;;;;;;10116152;28;20122;-67
2024/04/07 15:47:14;;;;;;;5.30;3.15;;;;;;;;;;10102202;28;20083;-66
2024/04/07 15:52:06;;;;;;;4.97;2.47;;;;;;;;;;10112572;28;20144;-66
2024/04/07 15:56:59;;;;;;;9.07;2.17;;;;;;;;;;10098503;28;20141;-67
2024/04/07 16:01:51;;;;;;;3.83;2.00;;;;;;;;;;10117437;28;20045;-66
2024/04/07 16:06:43;;;;;;;3.60;1.98;;;;;;;;;;10106907;28;20550;-67
2024/04/07 16:11:35;;;;;;;8.70;2.40;;;;;;;;;;10129815;28;20037;-67
2024/04/07 16:16:28;;;;;;;3.92;2.50;;;;;;;;;;10129175;28;20076;-67
2024/04/07 16:21:20;;;;;;;4.53;1.67;;;;;;;;;;10122839;28;20057;-67
2024/04/07 16:26:12;;;;;;;6.43;1.95;;;;;;;;;;10117671;28;20501;-67
2024/04/07 16:31:07;;;;;;;4.55;1.95;;;;;;;;;;10117446;28;20036;-67
2024/04/07 16:35:59;;;;;;;6.38;2.13;;;;;;;;;;10127971;28;20127;-66
2024/04/07 16:41:13;;;;;;;5.53;2.13;;;;;;;;;;10126578;28;20454;-67
2024/04/07 16:46:06;;;;;;;3.20;2.13;;;;;;;;;;10112710;28;20048;-67
2024/04/07 16:50:58;;;;;;;7.05;2.28;;;;;;;;;;10128221;28;20052;-67
2024/04/07 16:55:50;;;;;;;4.38;1.80;;;;;;;;;;10127939;28;20434;-67
2024/04/07 17:00:46;;;;;;;3.85;2.20;;;;;;;;;;10127839;28;20045;-67
2024/04/07 17:05:39;;;;;;;4.25;1.88;;;;;;;;;;10125692;28;20056;-66
2024/04/07 17:10:33;;;;;;;5.72;2.63;;;;;;;;;;10125930;28;20454;-67
2024/04/07 17:15:25;;;;;;;4.97;3.35;;;;;;;;;;10116126;28;20080;-66
2024/04/07 17:20:18;;;;;;;4.55;1.83;;;;;;;;;;10119081;28;20048;-66
2024/04/07 17:25:11;;;;;;;6.95;2.38;;;;;;;;;;10126533;28;20123;-66
2024/04/07 17:30:06;;;;;;;10.77;2.47;;;;;;;;;;10126166;28;20040;-67
2024/04/07 17:34:59;;;;;;;10.02;2.55;;;;;;;;;;10125450;28;20131;-66
2024/04/07 17:39:51;;;;;;;5.50;2.13;;;;;;;;;;10125572;28;20128;-67
2024/04/07 17:44:48;;;;;;;2.90;1.70;;;;;;;;;;10123452;28;20052;-67
2024/04/07 17:49:41;;;;;;;6.63;2.92;;;;;;;;;;10113978;28;20172;-67
2024/04/07 17:54:34;;;;;;;3.85;2.72;;;;;;;;;;10132995;28;20099;-64
2024/04/07 17:59:27;;;;;;;5.57;2.95;;;;;;;;;;10133182;28;20044;-65
2024/04/07 18:04:19;;;;;;;6.50;2.30;;;;;;;;;;10134167;28;20064;-64
2024/04/07 18:09:19;;;;;;;4.53;2.30;;;;;;;;;;10133985;28;20457;-63
2024/04/07 18:14:11;;;;;;;2.90;2.25;;;;;;;;;;10121280;28;20045;-66
2024/04/07 18:19:05;;;;;;;6.60;2.70;;;;;;;;;;10131193;28;20112;-64
2024/04/07 18:23:59;;;;;;;10.00;4.38;;;;;;;;;;10123250;28;20059;-66
2024/04/07 18:28:52;;;;;;;5.10;2.95;;;;;;;;;;10127727;28;20056;-67
2024/04/07 18:33:44;;;;;;;4.78;2.42;;;;;;;;;;10132920;28;20048;-65
2024/04/07 18:38:36;;;;;;;4.95;2.58;;;;;;;;;;10132948;28;20056;-65
2024/04/07 18:43:29;;;;;;;4.65;2.55;;;;;;;;;;10127776;28;20036;-66
2024/04/07 18:48:21;;;;;;;2.97;2.67;;;;;;;;;;10119154;28;20054;-67
2024/04/07 18:53:13;;;;;;;3.17;2.00;;;;;;;;;;10123606;28;20053;-70
2024/04/07 18:58:06;;;;;;;6.22;3.63;;;;;;;;;;10128730;28;20045;-71
2024/04/07 19:03:05;;;;;;;4.53;3.00;;;;;;;;;;10110454;28;20060;-71
2024/04/07 19:07:58;;;;;;;5.80;3.55;;;;;;;;;;10130025;28;20048;-72
2024/04/07 19:12:52;;;;;;;4.78;3.25;;;;;;;;;;10126320;28;20048;-69
2024/04/07 19:17:44;;;;;;;5.70;3.33;;;;;;;;;;10130020;28;20044;-70
2024/04/07 19:22:38;;;;;;;3.70;3.15;;;;;;;;;;10130851;28;20057;-71
2024/04/07 19:27:31;;;;;;;3.78;3.42;;;;;;;;;;10130498;28;20090;-67
2024/04/07 19:32:24;;;;;;;6.35;3.47;;;;;;;;;;10115579;28;20056;-68
2024/04/07 19:37:16;;;;;;;6.00;3.88;;;;;;;;;;10130591;28;20459;-67
2024/04/07 19:42:09;;;;;;;5.55;3.45;;;;;;;;;;10123187;28;20403;-69
2024/04/07 19:47:01;;;;;;;7.70;3.85;;;;;;;;;;10126275;28;20056;-67
2024/04/07 19:51:54;;;;;;;9.48;3.30;;;;;;;;;;10097780;28;20512;-67
2024/04/07 19:56:47;;;;;;;4.53;3.33;;;;;;;;;;10106370;28;20052;-69
2024/04/07 20:01:39;;;;;;;5.78;3.55;;;;;;;;;;10105575;28;20055;-67
2024/04/07 20:06:32;;;;;;;5.80;3.85;;;;;;;;;;10096111;28;20045;-67
2024/04/07 20:11:24;;;;;;;5.05;3.22;;;;;;;;;;10080373;28;20053;-68
2024/04/07 20:16:16;;;;;;;10.23;3.60;;;;;;;;;;10085360;28;20065;-68
2024/04/07 20:21:08;;;;;;;10.55;4.20;;;;;;;;;;10087729;28;20081;-67
2024/04/07 20:26:00;;;;;;;9.82;5.03;;;;;;;;;;10094333;28;20056;-67
2024/04/07 20:30:53;;;;;;;10.05;4.32;;;;;;;;;;10101768;28;20074;-68
2024/04/07 20:35:46;;;;;;;15.07;3.38;;;;;;;;;;10099860;28;20102;-68
2024/04/07 20:40:39;;;;;;;7.57;4.22;;;;;;;;;;10098934;28;20083;-67
2024/04/07 20:45:31;;;;;;;9.70;5.60;;;;;;;;;;10083493;28;20515;-67
2024/04/07 20:50:28;;;;;;;12.18;5.15;;;;;;;;;;10119375;28;20404;-66
2024/04/07 20:55:21;;;;;;;14.88;5.57;;;;;;;;;;10123640;28;20523;-68
2024/04/07 21:00:14;;;;;;;5.00;3.58;;;;;;;;;;10123315;28;20072;-66
2024/04/07 21:05:08;;;;;;;15.15;5.53;;;;;;;;;;10115021;28;20515;-66
2024/04/07 21:10:03;;;;;;;6.13;3.97;;;;;;;;;;10121775;28;20134;-67
2024/04/07 21:14:55;;;;;;;9.57;4.32;;;;;;;;;;10117593;28;20059;-65
2024/04/07 21:19:48;;;;;;;5.93;4.55;;;;;;;;;;10120043;28;20056;-66
2024/04/07 21:24:41;;;;;;;5.50;4.07;;;;;;;;;;10119937;28;20083;-66
2024/04/07 21:29:34;;;;;;;5.63;4.47;;;;;;;;;;10117571;28;20047;-67
2024/04/07 21:34:27;;;;;;;5.38;3.67;;;;;;;;;;10119294;28;20049;-66
2024/04/07 21:39:18;;;;;;;7.25;4.80;;;;;;;;;;10119259;28;20118;-67
2024/04/07 21:44:11;;;;;;;6.35;3.72;;;;;;;;;;10123220;28;20052;-67
2024/04/07 21:49:04;;;;;;;7.35;4.30;;;;;;;;;;10126266;28;20048;-67
2024/04/07 21:53:57;;;;;;;8.90;3.78;;;;;;;;;;10143044;28;20045;-66
2024/04/07 21:58:49;;;;;;;5.32;3.40;;;;;;;;;;10126754;28;20056;-66
2024/04/07 22:03:42;;;;;;;7.38;3.30;;;;;;;;;;10126671;28;20051;-66
2024/04/07 22:08:35;;;;;;;3.65;2.97;;;;;;;;;;10126631;28;20040;-66
2024/04/07 22:13:28;;;;;;;7.72;3.75;;;;;;;;;;10124461;28;20148;-67
2024/04/07 22:18:25;;;;;;;7.20;3.88;;;;;;;;;;10126607;28;20048;-66
2024/04/07 22:23:18;;;;;;;6.28;3.47;;;;;;;;;;10116820;28;20083;-66
2024/04/07 22:28:10;;;;;;;4.78;2.97;;;;;;;;;;10126048;28;20131;-66
2024/04/07 22:33:03;;;;;;;4.75;2.80;;;;;;;;;;10125759;28;20044;-66
2024/04/07 22:37:57;;;;;;;3.92;3.40;;;;;;;;;;10126864;28;20040;-66
2024/04/07 22:42:50;;;;;;;6.13;3.30;;;;;;;;;;10132900;28;20049;-66
2024/04/07 22:47:42;;;;;;;3.50;2.78;;;;;;;;;;10133301;28;20048;-66
2024/04/07 22:52:35;;;;;;;3.85;2.90;;;;;;;;;;10118586;28;20052;-69
2024/04/07 22:57:27;;;;;;;5.75;2.90;;;;;;;;;;10115939;28;20045;-68
2024/04/07 23:02:21;;;;;;;7.28;3.35;;;;;;;;;;10118794;28;20064;-67
2024/04/07 23:07:14;;;;;;;4.75;3.03;;;;;;;;;;10102791;28;20056;-67
2024/04/07 23:12:08;;;;;;;5.15;3.00;;;;;;;;;;10117915;28;20057;-67
2024/04/07 23:17:02;;;;;;;5.32;4.15;;;;;;;;;;10118408;28;20075;-67
2024/04/07 23:21:54;;;;;;;3.95;2.58;;;;;;;;;;10106775;28;20111;-66
2024/04/07 23:26:46;;;;;;;3.00;2.50;;;;;;;;;;10106587;28;20044;-66
2024/04/07 23:31:40;;;;;;;4.25;2.78;;;;;;;;;;10122352;28;20053;-66
2024/04/07 23:36:34;;;;;;;5.10;2.70;;;;;;;;;;10109582;28;20049;-66
2024/04/07 23:41:27;;;;;;;3.55;2.58;;;;;;;;;;10102941;28;20041;-66
2024/04/07 23:46:19;;;;;;;10.65;3.22;;;;;;;;;;10110106;28;20098;-65
2024/04/07 23:51:12;;;;;;;4.93;3.10;;;;;;;;;;10082418;28;20440;-67
2024/04/07 23:56:08;;;;;;;7.78;3.00;;;;;;;;;;10079433;28;20095;-66
